createdAt,value
2022-11-24T00:03:41.700Z,2.2
2022-11-24T00:09:25.038Z,2.1
2022-11-24T00:15:08.486Z,2.1
2022-11-24T00:20:57.221Z,2
2022-11-24T00:26:40.199Z,2.1
2022-11-24T00:32:23.367Z,2.4
2022-11-24T00:38:06.566Z,2.4
2022-11-24T00:43:49.728Z,2
2022-11-24T00:49:32.849Z,2.2
2022-11-24T00:55:15.934Z,2.2
2022-11-24T01:01:03.161Z,3
2022-11-24T01:06:46.178Z,2.4
2022-11-24T01:12:29.552Z,2.2
2022-11-24T01:18:12.530Z,3.2
2022-11-24T01:23:55.751Z,2.3
2022-11-24T01:29:38.846Z,2.8
2022-11-24T01:35:22.005Z,2.4
2022-11-24T01:41:08.867Z,2.5
2022-11-24T01:46:54.128Z,2.5
2022-11-24T01:52:39.483Z,2.3
2022-11-24T01:58:25.380Z,2.3
2022-11-24T02:04:11.678Z,2.3
2022-11-24T02:09:57.389Z,2.3
2022-11-24T02:15:41.636Z,2.5
2022-11-24T02:21:24.835Z,2.6
2022-11-24T02:27:08.056Z,3
2022-11-24T02:32:51.628Z,2.5
2022-11-24T02:38:36.776Z,2.3
2022-11-24T02:44:21.780Z,2.8
2022-11-24T02:50:05.294Z,2.5
2022-11-24T02:55:49.383Z,2.7
2022-11-24T03:01:32.613Z,2.3
2022-11-24T03:07:17.079Z,2.6
2022-11-24T03:13:00.110Z,2.6
2022-11-24T03:18:43.193Z,2.6
2022-11-24T03:24:26.180Z,2.8
2022-11-24T03:30:09.968Z,2.6
2022-11-24T03:35:52.893Z,2.1
2022-11-24T03:41:35.975Z,2.1
2022-11-24T03:47:18.864Z,1.8
2022-11-24T03:53:01.757Z,1.8
2022-11-24T03:58:44.948Z,1.5
2022-11-24T04:04:28.095Z,1.6
2022-11-24T04:10:11.756Z,1.4
2022-11-24T04:15:55.225Z,1.3
2022-11-24T04:21:39.225Z,1.3
2022-11-24T04:27:22.280Z,1.2
2022-11-24T04:33:05.353Z,1
2022-11-24T04:39:20.385Z,0.9
2022-11-24T04:44:51.383Z,1
2022-11-24T04:50:34.490Z,1.2
2022-11-24T04:56:17.417Z,1.3
2022-11-24T05:02:01.039Z,0.9
2022-11-24T05:07:44.692Z,1
2022-11-24T05:13:27.785Z,1.1
2022-11-24T05:19:11.813Z,1.1
2022-11-24T05:24:55.694Z,1
2022-11-24T05:30:39.159Z,1.2
2022-11-24T05:36:22.328Z,1.5
2022-11-24T05:42:06.244Z,1.4
2022-11-24T05:47:49.961Z,1.3
2022-11-24T05:53:32.810Z,1.2
2022-11-24T05:59:15.798Z,1.3
2022-11-24T06:04:58.933Z,1.1
2022-11-24T06:10:41.851Z,1.3
2022-11-24T06:16:25.260Z,1.3
2022-11-24T06:22:08.549Z,1.3
2022-11-24T06:27:51.596Z,1.2
2022-11-24T06:33:38.322Z,1.4
2022-11-24T06:39:21.407Z,1.4
2022-11-24T06:45:10.615Z,1.5
2022-11-24T06:50:54.196Z,1.3
2022-11-24T06:56:37.526Z,1.5
2022-11-24T07:08:04.367Z,1.2
2022-11-24T07:13:47.902Z,1.3
2022-11-24T07:19:30.880Z,1.4
2022-11-24T07:25:14.225Z,1.1
2022-11-24T07:30:57.679Z,1.4
2022-11-24T07:36:43.838Z,1.4
2022-11-24T07:42:26.576Z,1.3
2022-11-24T07:48:09.810Z,1.6
2022-11-24T07:53:52.799Z,1.3
2022-11-24T07:59:35.717Z,1.7
2022-11-24T08:05:18.844Z,1.5
2022-11-24T08:11:05.551Z,1.2
2022-11-24T08:16:48.908Z,1.2
2022-11-24T08:22:32.058Z,1.4
2022-11-24T08:28:16.374Z,1.4
2022-11-24T08:34:00.639Z,1.5
2022-11-24T08:39:43.675Z,1.8
2022-11-24T08:45:32.570Z,1.3
2022-11-24T08:51:25.085Z,1.1
2022-11-24T08:57:08.664Z,1.3
2022-11-24T09:02:53.823Z,1.5
2022-11-24T09:08:37.100Z,1.3
2022-11-24T09:14:21.195Z,1.3
2022-11-24T09:20:04.130Z,1.1
2022-11-24T09:25:47.183Z,1.4
2022-11-24T09:31:32.681Z,1.1
2022-11-24T09:37:15.877Z,1.3
2022-11-24T09:43:02.063Z,1.2
2022-11-24T09:48:47.899Z,1.4
2022-11-24T09:54:32.105Z,1.3
2022-11-24T10:00:16.590Z,1.2
2022-11-24T10:06:00.797Z,1.9
2022-11-24T10:11:45.846Z,1.4
2022-11-24T10:17:35.868Z,1.6
2022-11-24T10:23:26.850Z,1.5
2022-11-24T10:29:18.512Z,1.3
2022-11-24T10:35:04.494Z,1.4
2022-11-24T10:40:59.449Z,1.4
2022-11-24T10:46:42.978Z,1.5
2022-11-24T10:52:26.444Z,1.5
2022-11-24T10:58:19.288Z,1.4
2022-11-24T11:04:02.221Z,1.8
2022-11-24T11:09:45.043Z,1.7
2022-11-24T11:15:31.689Z,1.3
2022-11-24T11:21:19.769Z,1.5
2022-11-24T11:27:06.990Z,1.5
2022-11-24T11:39:00.174Z,1.5
2022-11-24T11:44:47.118Z,1.7
2022-11-24T11:50:59.400Z,1.6
2022-11-24T11:56:34.769Z,1.5
2022-11-24T12:02:27.048Z,1.6
2022-11-24T12:08:22.735Z,1.2
2022-11-24T12:14:13.387Z,1.4
2022-11-24T12:20:04.866Z,1.6
2022-11-24T12:25:51.060Z,1.5
2022-11-24T12:31:39.268Z,1.8
2022-11-24T12:37:29.968Z,1.3
2022-11-24T12:43:17.652Z,1.6
2022-11-24T12:49:06.187Z,2
2022-11-24T12:54:49.421Z,1.8
2022-11-24T13:00:36.294Z,1.9
2022-11-24T13:06:21.515Z,1.6
2022-11-24T13:12:15.351Z,1.8
2022-11-24T13:18:12.431Z,1.6
2022-11-24T13:24:01.564Z,1.9
2022-11-24T13:29:45.104Z,2.4
2022-11-24T13:35:28.245Z,1.8
2022-11-24T13:41:28.880Z,1.9
2022-11-24T13:47:18.348Z,1.8
2022-11-24T13:53:06.852Z,2.1
2022-11-24T13:58:51.176Z,2
2022-11-24T14:04:35.323Z,1.9
2022-11-24T14:10:21.588Z,1.9
2022-11-24T14:16:07.186Z,1.9
2022-11-24T14:21:50.948Z,1.8
2022-11-24T14:27:37.711Z,1.9
2022-11-24T14:33:21.708Z,1.9
2022-11-24T14:39:06.798Z,2.7
2022-11-24T14:44:52.050Z,2.3
2022-11-24T14:50:35.362Z,2
2022-11-24T14:56:29.174Z,2.5
2022-11-24T15:02:23.363Z,2.2
2022-11-24T15:08:06.517Z,2.2
2022-11-24T15:13:56.239Z,2.3
2022-11-24T15:19:41.250Z,2.3
2022-11-24T15:25:34.794Z,2.2
2022-11-24T15:31:18.296Z,2.2
2022-11-24T15:37:01.827Z,2.4
2022-11-24T15:42:45.840Z,2.4
2022-11-24T15:48:28.848Z,2.3
2022-11-24T15:54:14.623Z,2.7
2022-11-24T15:59:57.664Z,2.2
2022-11-24T16:05:40.988Z,2.5
2022-11-24T16:11:24.418Z,2.3
2022-11-24T16:17:07.580Z,2.2
2022-11-24T16:22:52.270Z,2.3
2022-11-24T16:28:36.626Z,2.2
2022-11-24T16:34:20.753Z,2.4
2022-11-24T16:40:04.157Z,2.2
2022-11-24T16:45:47.808Z,2.5
2022-11-24T16:51:36.429Z,2.7
2022-11-24T16:57:19.640Z,3
2022-11-24T17:03:02.773Z,2.8
2022-11-24T17:08:47.047Z,3.5
2022-11-24T17:14:30.519Z,3
2022-11-24T17:20:14.066Z,3.7
2022-11-24T17:26:02.071Z,3.6
2022-11-24T17:31:45.329Z,3.6
2022-11-24T17:37:28.721Z,3.5
2022-11-24T17:43:12.038Z,3.1
2022-11-24T17:48:55.397Z,3.1
2022-11-24T17:54:48.510Z,2.9
2022-11-24T18:00:31.584Z,2.9
2022-11-24T18:06:16.165Z,3.1
2022-11-24T18:11:59.138Z,3
2022-11-24T18:17:42.112Z,2.9
2022-11-24T18:23:25.322Z,2.7
2022-11-24T18:29:08.489Z,2.9
2022-11-24T18:34:51.340Z,2.8
2022-11-24T18:40:34.195Z,2.8
2022-11-24T18:46:18.588Z,2.6
2022-11-24T18:52:01.806Z,2.7
2022-11-24T18:57:44.792Z,2.7
2022-11-24T19:03:27.788Z,3
2022-11-24T19:09:13.483Z,2.8
2022-11-24T19:14:56.453Z,2.8
2022-11-24T19:20:39.599Z,2.7
2022-11-24T19:26:22.924Z,3
2022-11-24T19:32:06.654Z,3
2022-11-24T19:37:49.683Z,2.8
2022-11-24T19:43:33.915Z,2.4
2022-11-24T19:49:17.809Z,2.4
2022-11-24T19:55:00.808Z,2.3
2022-11-24T20:00:43.977Z,2.6
2022-11-24T20:06:28.821Z,2.2
2022-11-24T20:12:11.696Z,2.4
2022-11-24T20:17:55.793Z,2.3
2022-11-24T20:23:38.813Z,2.2
2022-11-24T20:29:22.181Z,2.4
2022-11-24T20:35:05.436Z,2.5
2022-11-24T20:40:48.555Z,2.5
2022-11-24T20:46:32.552Z,2
2022-11-24T20:52:15.489Z,2.1
2022-11-24T20:57:58.796Z,2.2
2022-11-24T21:03:45.103Z,2.5
2022-11-24T21:09:28.192Z,2.4
2022-11-24T21:15:11.690Z,2
2022-11-24T21:20:55.052Z,2.1
2022-11-24T21:26:40.408Z,2.1
2022-11-24T21:32:23.511Z,2.2
2022-11-24T21:38:06.733Z,2
2022-11-24T21:43:49.928Z,2.5
2022-11-24T21:49:33.230Z,2.3
2022-11-24T21:55:16.852Z,2.3
2022-11-24T22:01:02.954Z,2.5
2022-11-24T22:06:46.364Z,2.4
2022-11-24T22:12:30.306Z,2.2
2022-11-24T22:18:13.556Z,2.4
2022-11-24T22:23:56.803Z,2.4
2022-11-24T22:29:39.876Z,2.4
2022-11-24T22:35:22.984Z,2.5
2022-11-24T22:41:09.403Z,2
2022-11-24T22:46:52.538Z,2.5
2022-11-24T22:52:35.785Z,2.2
2022-11-24T22:58:18.881Z,2.3
2022-11-24T23:04:02.210Z,2.3
2022-11-24T23:09:45.452Z,2.3
2022-11-24T23:15:28.564Z,2.7
2022-11-24T23:21:13.037Z,2.3
2022-11-24T23:26:56.045Z,2.2
2022-11-24T23:32:39.154Z,2.1
2022-11-24T23:38:22.520Z,2
2022-11-24T23:44:06.327Z,1.7
2022-11-24T23:49:50.332Z,2
2022-11-24T23:55:33.609Z,1.9
